sensor_id;sensor_type;location;lat;lon;timestamp;P1;durP1;ratioP1;P2;durP2;ratioP2
18905;SDS011;9585;51.018;4.282;2023-02-11T00:01:38;13.32;;;6.25;;
18905;SDS011;9585;51.018;4.282;2023-02-11T00:04:06;12.73;;;6.35;;
18905;SDS011;9585;51.018;4.282;2023-02-11T00:06:33;10.30;;;6.20;;
18905;SDS011;9585;51.018;4.282;2023-02-11T00:09:01;11.90;;;6.28;;
18905;SDS011;9585;51.018;4.282;2023-02-11T00:11:29;11.27;;;6.45;;
18905;SDS011;9585;51.018;4.282;2023-02-11T00:13:57;12.23;;;6.50;;
18905;SDS011;9585;51.018;4.282;2023-02-11T00:16:28;11.60;;;6.60;;
18905;SDS011;9585;51.018;4.282;2023-02-11T00:18:57;13.82;;;5.80;;
18905;SDS011;9585;51.018;4.282;2023-02-11T00:21:25;13.57;;;6.35;;
18905;SDS011;9585;51.018;4.282;2023-02-11T00:23:53;10.00;;;6.05;;
18905;SDS011;9585;51.018;4.282;2023-02-11T00:26:24;12.38;;;6.10;;
18905;SDS011;9585;51.018;4.282;2023-02-11T00:28:52;11.05;;;5.82;;
18905;SDS011;9585;51.018;4.282;2023-02-11T00:31:23;10.45;;;5.70;;
18905;SDS011;9585;51.018;4.282;2023-02-11T00:33:53;10.15;;;5.95;;
18905;SDS011;9585;51.018;4.282;2023-02-11T00:36:21;10.43;;;5.75;;
18905;SDS011;9585;51.018;4.282;2023-02-11T00:38:51;10.88;;;6.03;;
18905;SDS011;9585;51.018;4.282;2023-02-11T00:41:20;10.55;;;5.68;;
18905;SDS011;9585;51.018;4.282;2023-02-11T00:43:47;12.98;;;6.00;;
18905;SDS011;9585;51.018;4.282;2023-02-11T00:46:15;17.00;;;6.10;;
18905;SDS011;9585;51.018;4.282;2023-02-11T00:48:44;10.18;;;5.63;;
18905;SDS011;9585;51.018;4.282;2023-02-11T00:51:12;11.63;;;5.78;;
18905;SDS011;9585;51.018;4.282;2023-02-11T00:53:40;12.90;;;5.43;;
18905;SDS011;9585;51.018;4.282;2023-02-11T00:56:08;12.23;;;5.60;;
18905;SDS011;9585;51.018;4.282;2023-02-11T00:58:37;8.60;;;5.43;;
18905;SDS011;9585;51.018;4.282;2023-02-11T01:01:04;9.55;;;5.70;;
18905;SDS011;9585;51.018;4.282;2023-02-11T01:03:32;14.48;;;6.35;;
18905;SDS011;9585;51.018;4.282;2023-02-11T01:05:59;10.57;;;5.82;;
18905;SDS011;9585;51.018;4.282;2023-02-11T01:08:28;10.82;;;5.70;;
18905;SDS011;9585;51.018;4.282;2023-02-11T01:10:56;10.35;;;5.53;;
18905;SDS011;9585;51.018;4.282;2023-02-11T01:13:25;13.30;;;6.05;;
18905;SDS011;9585;51.018;4.282;2023-02-11T01:15:53;8.77;;;5.30;;
18905;SDS011;9585;51.018;4.282;2023-02-11T01:18:20;10.85;;;5.35;;
18905;SDS011;9585;51.018;4.282;2023-02-11T01:20:49;14.02;;;6.00;;
18905;SDS011;9585;51.018;4.282;2023-02-11T01:23:17;14.13;;;6.70;;
18905;SDS011;9585;51.018;4.282;2023-02-11T01:25:46;12.88;;;5.93;;
18905;SDS011;9585;51.018;4.282;2023-02-11T01:28:14;9.27;;;5.97;;
18905;SDS011;9585;51.018;4.282;2023-02-11T01:30:43;13.18;;;6.13;;
18905;SDS011;9585;51.018;4.282;2023-02-11T01:33:10;10.40;;;6.32;;
18905;SDS011;9585;51.018;4.282;2023-02-11T01:35:38;12.93;;;6.53;;
18905;SDS011;9585;51.018;4.282;2023-02-11T01:38:05;13.32;;;6.90;;
18905;SDS011;9585;51.018;4.282;2023-02-11T01:40:33;14.80;;;6.20;;
18905;SDS011;9585;51.018;4.282;2023-02-11T01:43:02;12.27;;;6.50;;
18905;SDS011;9585;51.018;4.282;2023-02-11T01:48:24;16.02;;;6.88;;
18905;SDS011;9585;51.018;4.282;2023-02-11T01:50:56;13.75;;;7.63;;
18905;SDS011;9585;51.018;4.282;2023-02-11T01:53:28;10.55;;;6.05;;
18905;SDS011;9585;51.018;4.282;2023-02-11T01:56:14;13.18;;;6.28;;
18905;SDS011;9585;51.018;4.282;2023-02-11T01:59:05;11.57;;;6.13;;
18905;SDS011;9585;51.018;4.282;2023-02-11T02:01:37;13.45;;;7.25;;
18905;SDS011;9585;51.018;4.282;2023-02-11T02:04:06;12.38;;;6.20;;
18905;SDS011;9585;51.018;4.282;2023-02-11T02:06:36;13.82;;;6.65;;
18905;SDS011;9585;51.018;4.282;2023-02-11T02:09:10;13.60;;;6.32;;
18905;SDS011;9585;51.018;4.282;2023-02-11T02:11:43;15.15;;;6.55;;
18905;SDS011;9585;51.018;4.282;2023-02-11T02:14:12;12.25;;;6.30;;
18905;SDS011;9585;51.018;4.282;2023-02-11T02:16:39;15.60;;;6.82;;
18905;SDS011;9585;51.018;4.282;2023-02-11T02:19:13;13.50;;;6.45;;
18905;SDS011;9585;51.018;4.282;2023-02-11T02:22:17;12.07;;;6.10;;
18905;SDS011;9585;51.018;4.282;2023-02-11T02:25:18;13.30;;;5.50;;
18905;SDS011;9585;51.018;4.282;2023-02-11T02:28:08;15.55;;;5.70;;
18905;SDS011;9585;51.018;4.282;2023-02-11T02:30:52;12.77;;;6.22;;
18905;SDS011;9585;51.018;4.282;2023-02-11T02:33:51;11.82;;;5.50;;
18905;SDS011;9585;51.018;4.282;2023-02-11T02:36:22;13.65;;;5.90;;
18905;SDS011;9585;51.018;4.282;2023-02-11T02:39:00;10.68;;;6.03;;
18905;SDS011;9585;51.018;4.282;2023-02-11T02:41:31;10.85;;;6.13;;
18905;SDS011;9585;51.018;4.282;2023-02-11T02:44:01;11.65;;;5.90;;
18905;SDS011;9585;51.018;4.282;2023-02-11T02:46:29;10.50;;;6.10;;
18905;SDS011;9585;51.018;4.282;2023-02-11T02:48:59;12.10;;;5.28;;
18905;SDS011;9585;51.018;4.282;2023-02-11T02:54:35;11.07;;;5.85;;
18905;SDS011;9585;51.018;4.282;2023-02-11T02:57:28;12.48;;;5.68;;
18905;SDS011;9585;51.018;4.282;2023-02-11T03:00:03;13.43;;;5.90;;
18905;SDS011;9585;51.018;4.282;2023-02-11T03:02:39;14.38;;;5.45;;
18905;SDS011;9585;51.018;4.282;2023-02-11T03:05:16;13.27;;;5.97;;
18905;SDS011;9585;51.018;4.282;2023-02-11T03:07:49;20.02;;;6.15;;
18905;SDS011;9585;51.018;4.282;2023-02-11T03:10:24;10.65;;;5.72;;
18905;SDS011;9585;51.018;4.282;2023-02-11T03:12:54;8.48;;;5.13;;
18905;SDS011;9585;51.018;4.282;2023-02-11T03:15:23;10.35;;;5.90;;
18905;SDS011;9585;51.018;4.282;2023-02-11T03:17:54;11.50;;;5.88;;
18905;SDS011;9585;51.018;4.282;2023-02-11T03:20:25;12.18;;;6.20;;
18905;SDS011;9585;51.018;4.282;2023-02-11T03:22:57;10.18;;;5.30;;
18905;SDS011;9585;51.018;4.282;2023-02-11T03:25:33;7.85;;;5.82;;
18905;SDS011;9585;51.018;4.282;2023-02-11T03:28:05;11.50;;;6.03;;
18905;SDS011;9585;51.018;4.282;2023-02-11T03:30:39;11.95;;;5.97;;
18905;SDS011;9585;51.018;4.282;2023-02-11T03:33:11;13.52;;;6.28;;
18905;SDS011;9585;51.018;4.282;2023-02-11T03:35:46;10.27;;;6.78;;
18905;SDS011;9585;51.018;4.282;2023-02-11T03:38:20;10.13;;;5.75;;
18905;SDS011;9585;51.018;4.282;2023-02-11T03:40:50;10.88;;;5.93;;
18905;SDS011;9585;51.018;4.282;2023-02-11T03:43:21;16.30;;;6.90;;
18905;SDS011;9585;51.018;4.282;2023-02-11T03:45:52;13.27;;;6.13;;
18905;SDS011;9585;51.018;4.282;2023-02-11T03:48:21;11.98;;;6.30;;
18905;SDS011;9585;51.018;4.282;2023-02-11T03:50:53;12.00;;;6.00;;
18905;SDS011;9585;51.018;4.282;2023-02-11T03:53:24;14.32;;;6.32;;
18905;SDS011;9585;51.018;4.282;2023-02-11T03:55:51;12.18;;;6.30;;
18905;SDS011;9585;51.018;4.282;2023-02-11T03:58:22;10.18;;;5.85;;
18905;SDS011;9585;51.018;4.282;2023-02-11T04:00:50;16.58;;;6.68;;
18905;SDS011;9585;51.018;4.282;2023-02-11T04:03:17;13.90;;;6.35;;
18905;SDS011;9585;51.018;4.282;2023-02-11T04:05:44;12.20;;;6.55;;
18905;SDS011;9585;51.018;4.282;2023-02-11T04:08:13;10.57;;;5.95;;
18905;SDS011;9585;51.018;4.282;2023-02-11T04:10:40;12.65;;;6.55;;
18905;SDS011;9585;51.018;4.282;2023-02-11T04:13:08;14.57;;;6.40;;
18905;SDS011;9585;51.018;4.282;2023-02-11T04:15:35;11.63;;;6.55;;
18905;SDS011;9585;51.018;4.282;2023-02-11T04:18:02;10.57;;;6.40;;
18905;SDS011;9585;51.018;4.282;2023-02-11T04:20:30;9.15;;;5.93;;
18905;SDS011;9585;51.018;4.282;2023-02-11T04:22:57;7.68;;;5.30;;
18905;SDS011;9585;51.018;4.282;2023-02-11T04:25:26;13.77;;;6.70;;
18905;SDS011;9585;51.018;4.282;2023-02-11T04:27:53;15.00;;;6.95;;
18905;SDS011;9585;51.018;4.282;2023-02-11T04:30:21;10.73;;;7.13;;
18905;SDS011;9585;51.018;4.282;2023-02-11T04:32:48;10.55;;;6.80;;
18905;SDS011;9585;51.018;4.282;2023-02-11T04:35:15;14.25;;;6.78;;
18905;SDS011;9585;51.018;4.282;2023-02-11T04:37:43;12.50;;;7.18;;
18905;SDS011;9585;51.018;4.282;2023-02-11T04:40:10;10.50;;;6.38;;
18905;SDS011;9585;51.018;4.282;2023-02-11T04:42:39;12.90;;;6.57;;
18905;SDS011;9585;51.018;4.282;2023-02-11T04:45:07;14.35;;;6.85;;
18905;SDS011;9585;51.018;4.282;2023-02-11T04:47:34;16.23;;;7.10;;
18905;SDS011;9585;51.018;4.282;2023-02-11T04:50:02;15.82;;;7.68;;
18905;SDS011;9585;51.018;4.282;2023-02-11T04:52:29;12.95;;;7.80;;
18905;SDS011;9585;51.018;4.282;2023-02-11T04:54:57;12.23;;;7.22;;
18905;SDS011;9585;51.018;4.282;2023-02-11T04:57:24;11.60;;;7.22;;
18905;SDS011;9585;51.018;4.282;2023-02-11T04:59:53;10.20;;;6.70;;
18905;SDS011;9585;51.018;4.282;2023-02-11T05:02:20;10.73;;;6.63;;
18905;SDS011;9585;51.018;4.282;2023-02-11T05:04:47;13.35;;;7.38;;
18905;SDS011;9585;51.018;4.282;2023-02-11T05:07:14;12.80;;;7.57;;
18905;SDS011;9585;51.018;4.282;2023-02-11T05:09:42;12.23;;;7.35;;
18905;SDS011;9585;51.018;4.282;2023-02-11T05:12:09;15.20;;;7.38;;
18905;SDS011;9585;51.018;4.282;2023-02-11T05:14:36;14.30;;;8.30;;
18905;SDS011;9585;51.018;4.282;2023-02-11T05:17:05;12.57;;;7.70;;
18905;SDS011;9585;51.018;4.282;2023-02-11T05:19:33;13.18;;;8.02;;
18905;SDS011;9585;51.018;4.282;2023-02-11T05:22:00;15.95;;;8.25;;
18905;SDS011;9585;51.018;4.282;2023-02-11T05:24:27;13.30;;;7.88;;
18905;SDS011;9585;51.018;4.282;2023-02-11T05:26:55;14.93;;;8.20;;
18905;SDS011;9585;51.018;4.282;2023-02-11T05:29:22;14.80;;;8.23;;
18905;SDS011;9585;51.018;4.282;2023-02-11T05:31:49;14.98;;;8.30;;
18905;SDS011;9585;51.018;4.282;2023-02-11T05:34:18;12.80;;;7.95;;
18905;SDS011;9585;51.018;4.282;2023-02-11T05:36:45;15.77;;;8.00;;
18905;SDS011;9585;51.018;4.282;2023-02-11T05:39:13;12.35;;;8.07;;
18905;SDS011;9585;51.018;4.282;2023-02-11T05:41:40;15.82;;;8.80;;
18905;SDS011;9585;51.018;4.282;2023-02-11T05:44:07;18.48;;;8.90;;
18905;SDS011;9585;51.018;4.282;2023-02-11T05:46:35;15.52;;;9.07;;
18905;SDS011;9585;51.018;4.282;2023-02-11T05:49:02;14.23;;;8.68;;
18905;SDS011;9585;51.018;4.282;2023-02-11T05:51:34;15.70;;;8.82;;
18905;SDS011;9585;51.018;4.282;2023-02-11T05:54:02;13.77;;;8.60;;
18905;SDS011;9585;51.018;4.282;2023-02-11T05:56:29;16.00;;;9.65;;
18905;SDS011;9585;51.018;4.282;2023-02-11T05:58:57;15.07;;;8.98;;
18905;SDS011;9585;51.018;4.282;2023-02-11T06:01:25;12.93;;;8.30;;
18905;SDS011;9585;51.018;4.282;2023-02-11T06:03:53;14.63;;;9.13;;
18905;SDS011;9585;51.018;4.282;2023-02-11T06:06:20;14.45;;;9.65;;
18905;SDS011;9585;51.018;4.282;2023-02-11T06:08:51;16.73;;;9.82;;
18905;SDS011;9585;51.018;4.282;2023-02-11T06:11:18;15.13;;;10.40;;
18905;SDS011;9585;51.018;4.282;2023-02-11T06:13:46;17.77;;;9.98;;
18905;SDS011;9585;51.018;4.282;2023-02-11T06:16:13;15.98;;;9.63;;
18905;SDS011;9585;51.018;4.282;2023-02-11T06:18:41;18.10;;;10.27;;
18905;SDS011;9585;51.018;4.282;2023-02-11T06:21:09;14.10;;;9.25;;
18905;SDS011;9585;51.018;4.282;2023-02-11T06:23:38;17.05;;;9.98;;
18905;SDS011;9585;51.018;4.282;2023-02-11T06:26:14;17.10;;;10.27;;
18905;SDS011;9585;51.018;4.282;2023-02-11T06:28:43;15.98;;;9.75;;
18905;SDS011;9585;51.018;4.282;2023-02-11T06:31:11;16.60;;;9.50;;
18905;SDS011;9585;51.018;4.282;2023-02-11T06:33:39;18.73;;;10.35;;
18905;SDS011;9585;51.018;4.282;2023-02-11T06:36:10;15.20;;;9.90;;
18905;SDS011;9585;51.018;4.282;2023-02-11T06:38:39;15.85;;;9.95;;
18905;SDS011;9585;51.018;4.282;2023-02-11T06:41:09;14.90;;;9.15;;
18905;SDS011;9585;51.018;4.282;2023-02-11T06:43:37;14.00;;;9.48;;
18905;SDS011;9585;51.018;4.282;2023-02-11T06:46:06;16.63;;;9.90;;
18905;SDS011;9585;51.018;4.282;2023-02-11T06:48:34;13.43;;;9.23;;
18905;SDS011;9585;51.018;4.282;2023-02-11T06:51:02;16.70;;;10.13;;
18905;SDS011;9585;51.018;4.282;2023-02-11T06:53:33;15.25;;;10.27;;
18905;SDS011;9585;51.018;4.282;2023-02-11T06:56:02;17.40;;;10.18;;
18905;SDS011;9585;51.018;4.282;2023-02-11T06:58:32;15.02;;;10.15;;
18905;SDS011;9585;51.018;4.282;2023-02-11T07:01:02;16.95;;;9.80;;
18905;SDS011;9585;51.018;4.282;2023-02-11T07:03:31;14.60;;;9.88;;
18905;SDS011;9585;51.018;4.282;2023-02-11T07:06:00;22.05;;;11.95;;
18905;SDS011;9585;51.018;4.282;2023-02-11T07:08:27;19.15;;;10.90;;
18905;SDS011;9585;51.018;4.282;2023-02-11T07:10:55;20.42;;;11.02;;
18905;SDS011;9585;51.018;4.282;2023-02-11T07:13:22;18.30;;;11.27;;
18905;SDS011;9585;51.018;4.282;2023-02-11T07:15:51;17.27;;;10.80;;
18905;SDS011;9585;51.018;4.282;2023-02-11T07:18:18;25.67;;;11.77;;
18905;SDS011;9585;51.018;4.282;2023-02-11T07:20:45;19.13;;;11.50;;
18905;SDS011;9585;51.018;4.282;2023-02-11T07:23:12;18.60;;;11.65;;
18905;SDS011;9585;51.018;4.282;2023-02-11T07:25:40;16.88;;;10.60;;
18905;SDS011;9585;51.018;4.282;2023-02-11T07:28:07;17.60;;;11.57;;
18905;SDS011;9585;51.018;4.282;2023-02-11T07:30:34;22.55;;;11.80;;
18905;SDS011;9585;51.018;4.282;2023-02-11T07:33:03;19.52;;;11.48;;
18905;SDS011;9585;51.018;4.282;2023-02-11T07:35:30;21.63;;;11.77;;
18905;SDS011;9585;51.018;4.282;2023-02-11T07:37:57;23.35;;;12.02;;
18905;SDS011;9585;51.018;4.282;2023-02-11T07:40:24;17.77;;;11.63;;
18905;SDS011;9585;51.018;4.282;2023-02-11T07:42:51;20.67;;;12.73;;
18905;SDS011;9585;51.018;4.282;2023-02-11T07:45:19;19.63;;;12.32;;
18905;SDS011;9585;51.018;4.282;2023-02-11T07:47:46;21.70;;;12.73;;
18905;SDS011;9585;51.018;4.282;2023-02-11T07:50:16;17.30;;;12.35;;
18905;SDS011;9585;51.018;4.282;2023-02-11T07:52:43;21.33;;;12.65;;
18905;SDS011;9585;51.018;4.282;2023-02-11T07:55:10;20.25;;;13.13;;
18905;SDS011;9585;51.018;4.282;2023-02-11T07:57:37;23.67;;;15.95;;
18905;SDS011;9585;51.018;4.282;2023-02-11T08:00:05;20.60;;;13.43;;
18905;SDS011;9585;51.018;4.282;2023-02-11T08:02:33;20.15;;;12.68;;
18905;SDS011;9585;51.018;4.282;2023-02-11T08:05:00;22.10;;;19.85;;
18905;SDS011;9585;51.018;4.282;2023-02-11T08:07:29;20.30;;;13.23;;
18905;SDS011;9585;51.018;4.282;2023-02-11T08:09:56;20.13;;;14.15;;
18905;SDS011;9585;51.018;4.282;2023-02-11T08:12:24;21.10;;;13.65;;
18905;SDS011;9585;51.018;4.282;2023-02-11T08:14:51;21.63;;;14.50;;
18905;SDS011;9585;51.018;4.282;2023-02-11T08:17:20;18.52;;;12.93;;
18905;SDS011;9585;51.018;4.282;2023-02-11T08:19:47;20.45;;;15.00;;
18905;SDS011;9585;51.018;4.282;2023-02-11T08:22:15;20.55;;;14.35;;
18905;SDS011;9585;51.018;4.282;2023-02-11T08:24:44;16.83;;;12.52;;
18905;SDS011;9585;51.018;4.282;2023-02-11T08:27:11;17.42;;;13.73;;
18905;SDS011;9585;51.018;4.282;2023-02-11T08:29:38;22.38;;;17.15;;
18905;SDS011;9585;51.018;4.282;2023-02-11T08:32:06;23.02;;;16.63;;
18905;SDS011;9585;51.018;4.282;2023-02-11T08:34:33;19.88;;;14.70;;
18905;SDS011;9585;51.018;4.282;2023-02-11T08:37:01;22.48;;;14.88;;
18905;SDS011;9585;51.018;4.282;2023-02-11T08:39:29;20.75;;;15.45;;
18905;SDS011;9585;51.018;4.282;2023-02-11T08:41:57;20.40;;;13.98;;
18905;SDS011;9585;51.018;4.282;2023-02-11T08:44:24;22.02;;;14.02;;
18905;SDS011;9585;51.018;4.282;2023-02-11T08:46:52;21.80;;;14.68;;
18905;SDS011;9585;51.018;4.282;2023-02-11T08:49:19;20.17;;;14.63;;
18905;SDS011;9585;51.018;4.282;2023-02-11T08:51:47;20.42;;;14.13;;
18905;SDS011;9585;51.018;4.282;2023-02-11T08:54:15;21.63;;;13.98;;
18905;SDS011;9585;51.018;4.282;2023-02-11T08:56:42;21.75;;;14.52;;
18905;SDS011;9585;51.018;4.282;2023-02-11T08:59:11;23.13;;;15.65;;
18905;SDS011;9585;51.018;4.282;2023-02-11T09:01:41;22.20;;;14.75;;
18905;SDS011;9585;51.018;4.282;2023-02-11T09:04:11;19.73;;;14.65;;
18905;SDS011;9585;51.018;4.282;2023-02-11T09:06:38;21.75;;;14.80;;
18905;SDS011;9585;51.018;4.282;2023-02-11T09:09:08;21.67;;;15.27;;
18905;SDS011;9585;51.018;4.282;2023-02-11T09:11:37;25.27;;;16.55;;
18905;SDS011;9585;51.018;4.282;2023-02-11T09:14:06;25.27;;;16.92;;
18905;SDS011;9585;51.018;4.282;2023-02-11T09:16:35;24.45;;;16.92;;
18905;SDS011;9585;51.018;4.282;2023-02-11T09:19:02;27.35;;;17.20;;
18905;SDS011;9585;51.018;4.282;2023-02-11T09:21:30;24.95;;;17.50;;
18905;SDS011;9585;51.018;4.282;2023-02-11T09:24:00;24.88;;;16.90;;
18905;SDS011;9585;51.018;4.282;2023-02-11T09:26:28;24.85;;;16.65;;
18905;SDS011;9585;51.018;4.282;2023-02-11T09:28:57;26.15;;;17.25;;
18905;SDS011;9585;51.018;4.282;2023-02-11T09:31:26;29.55;;;18.27;;
18905;SDS011;9585;51.018;4.282;2023-02-11T09:33:57;24.38;;;17.02;;
18905;SDS011;9585;51.018;4.282;2023-02-11T09:36:26;29.30;;;18.42;;
18905;SDS011;9585;51.018;4.282;2023-02-11T09:38:54;24.63;;;17.52;;
18905;SDS011;9585;51.018;4.282;2023-02-11T09:41:32;26.83;;;18.73;;
18905;SDS011;9585;51.018;4.282;2023-02-11T09:44:07;32.38;;;24.42;;
18905;SDS011;9585;51.018;4.282;2023-02-11T09:46:42;28.85;;;19.17;;
18905;SDS011;9585;51.018;4.282;2023-02-11T09:49:18;29.40;;;19.52;;
18905;SDS011;9585;51.018;4.282;2023-02-11T09:51:51;28.75;;;19.35;;
18905;SDS011;9585;51.018;4.282;2023-02-11T09:54:25;31.88;;;19.10;;
18905;SDS011;9585;51.018;4.282;2023-02-11T09:56:56;29.23;;;20.30;;
18905;SDS011;9585;51.018;4.282;2023-02-11T09:59:24;28.27;;;19.88;;
18905;SDS011;9585;51.018;4.282;2023-02-11T10:01:52;27.75;;;18.83;;
18905;SDS011;9585;51.018;4.282;2023-02-11T10:04:28;32.00;;;20.50;;
18905;SDS011;9585;51.018;4.282;2023-02-11T10:07:06;29.02;;;19.10;;
18905;SDS011;9585;51.018;4.282;2023-02-11T10:12:38;30.83;;;20.13;;
18905;SDS011;9585;51.018;4.282;2023-02-11T10:15:17;29.45;;;19.85;;
18905;SDS011;9585;51.018;4.282;2023-02-11T10:18:06;30.42;;;20.33;;
18905;SDS011;9585;51.018;4.282;2023-02-11T10:20:47;36.60;;;21.70;;
18905;SDS011;9585;51.018;4.282;2023-02-11T10:23:24;25.33;;;18.40;;
18905;SDS011;9585;51.018;4.282;2023-02-11T10:25:54;35.22;;;23.02;;
18905;SDS011;9585;51.018;4.282;2023-02-11T10:28:26;33.97;;;22.20;;
18905;SDS011;9585;51.018;4.282;2023-02-11T10:30:56;31.75;;;20.90;;
18905;SDS011;9585;51.018;4.282;2023-02-11T10:33:28;30.77;;;21.60;;
18905;SDS011;9585;51.018;4.282;2023-02-11T10:36:01;33.45;;;21.70;;
18905;SDS011;9585;51.018;4.282;2023-02-11T10:38:29;32.35;;;22.92;;
18905;SDS011;9585;51.018;4.282;2023-02-11T10:40:57;34.00;;;22.98;;
18905;SDS011;9585;51.018;4.282;2023-02-11T10:43:25;32.28;;;21.45;;
18905;SDS011;9585;51.018;4.282;2023-02-11T10:45:56;35.33;;;22.70;;
18905;SDS011;9585;51.018;4.282;2023-02-11T10:48:38;32.45;;;23.23;;
18905;SDS011;9585;51.018;4.282;2023-02-11T10:51:19;36.80;;;23.35;;
18905;SDS011;9585;51.018;4.282;2023-02-11T10:53:48;37.92;;;23.40;;
18905;SDS011;9585;51.018;4.282;2023-02-11T10:56:20;34.63;;;23.98;;
18905;SDS011;9585;51.018;4.282;2023-02-11T10:58:54;33.67;;;23.95;;
18905;SDS011;9585;51.018;4.282;2023-02-11T11:01:36;31.50;;;22.63;;
18905;SDS011;9585;51.018;4.282;2023-02-11T11:04:06;37.92;;;24.55;;
18905;SDS011;9585;51.018;4.282;2023-02-11T11:07:08;32.97;;;23.27;;
18905;SDS011;9585;51.018;4.282;2023-02-11T11:09:55;34.85;;;22.83;;
18905;SDS011;9585;51.018;4.282;2023-02-11T11:12:45;40.08;;;24.83;;
18905;SDS011;9585;51.018;4.282;2023-02-11T11:15:18;34.58;;;22.77;;
18905;SDS011;9585;51.018;4.282;2023-02-11T11:17:50;32.03;;;21.98;;
18905;SDS011;9585;51.018;4.282;2023-02-11T11:20:52;35.97;;;23.08;;
18905;SDS011;9585;51.018;4.282;2023-02-11T11:23:34;32.70;;;21.90;;
18905;SDS011;9585;51.018;4.282;2023-02-11T11:26:41;32.70;;;21.95;;
18905;SDS011;9585;51.018;4.282;2023-02-11T11:29:12;31.23;;;21.25;;
18905;SDS011;9585;51.018;4.282;2023-02-11T11:31:54;33.17;;;21.90;;
18905;SDS011;9585;51.018;4.282;2023-02-11T11:35:19;30.95;;;21.10;;
18905;SDS011;9585;51.018;4.282;2023-02-11T11:37:59;35.15;;;22.02;;
18905;SDS011;9585;51.018;4.282;2023-02-11T11:40:30;30.33;;;21.30;;
18905;SDS011;9585;51.018;4.282;2023-02-11T11:43:14;33.20;;;21.58;;
18905;SDS011;9585;51.018;4.282;2023-02-11T11:45:57;28.90;;;20.45;;
18905;SDS011;9585;51.018;4.282;2023-02-11T11:48:45;31.45;;;21.58;;
18905;SDS011;9585;51.018;4.282;2023-02-11T11:51:15;29.67;;;21.73;;
18905;SDS011;9585;51.018;4.282;2023-02-11T11:53:44;32.53;;;22.33;;
18905;SDS011;9585;51.018;4.282;2023-02-11T11:56:18;32.03;;;21.98;;
18905;SDS011;9585;51.018;4.282;2023-02-11T11:58:47;34.17;;;22.55;;
18905;SDS011;9585;51.018;4.282;2023-02-11T12:01:18;32.90;;;23.05;;
18905;SDS011;9585;51.018;4.282;2023-02-11T12:04:08;29.00;;;21.23;;
18905;SDS011;9585;51.018;4.282;2023-02-11T12:07:07;34.55;;;22.58;;
18905;SDS011;9585;51.018;4.282;2023-02-11T12:09:45;28.08;;;21.20;;
18905;SDS011;9585;51.018;4.282;2023-02-11T12:12:32;33.92;;;22.63;;
18905;SDS011;9585;51.018;4.282;2023-02-11T12:15:14;33.17;;;22.55;;
18905;SDS011;9585;51.018;4.282;2023-02-11T12:17:54;29.38;;;21.38;;
18905;SDS011;9585;51.018;4.282;2023-02-11T12:20:35;28.55;;;21.13;;
18905;SDS011;9585;51.018;4.282;2023-02-11T12:23:24;30.10;;;21.52;;
18905;SDS011;9585;51.018;4.282;2023-02-11T12:26:02;30.15;;;21.65;;
18905;SDS011;9585;51.018;4.282;2023-02-11T12:28:42;31.13;;;21.92;;
18905;SDS011;9585;51.018;4.282;2023-02-11T12:31:27;31.65;;;23.08;;
18905;SDS011;9585;51.018;4.282;2023-02-11T12:34:07;31.15;;;21.58;;
18905;SDS011;9585;51.018;4.282;2023-02-11T12:37:01;31.58;;;22.20;;
18905;SDS011;9585;51.018;4.282;2023-02-11T12:39:38;30.65;;;22.55;;
18905;SDS011;9585;51.018;4.282;2023-02-11T12:42:15;29.35;;;20.83;;
18905;SDS011;9585;51.018;4.282;2023-02-11T12:45:19;27.88;;;20.50;;
18905;SDS011;9585;51.018;4.282;2023-02-11T12:47:59;32.03;;;22.60;;
18905;SDS011;9585;51.018;4.282;2023-02-11T12:50:39;32.55;;;22.48;;
18905;SDS011;9585;51.018;4.282;2023-02-11T12:53:20;33.42;;;23.27;;
18905;SDS011;9585;51.018;4.282;2023-02-11T12:56:07;26.30;;;21.27;;
18905;SDS011;9585;51.018;4.282;2023-02-11T12:58:40;30.92;;;21.88;;
18905;SDS011;9585;51.018;4.282;2023-02-11T13:01:14;26.92;;;20.58;;
18905;SDS011;9585;51.018;4.282;2023-02-11T13:03:45;27.95;;;21.73;;
18905;SDS011;9585;51.018;4.282;2023-02-11T13:06:17;30.50;;;21.73;;
18905;SDS011;9585;51.018;4.282;2023-02-11T13:08:48;27.83;;;21.45;;
18905;SDS011;9585;51.018;4.282;2023-02-11T13:11:19;29.73;;;22.40;;
18905;SDS011;9585;51.018;4.282;2023-02-11T13:13:50;27.58;;;20.27;;
18905;SDS011;9585;51.018;4.282;2023-02-11T13:16:26;30.35;;;22.52;;
18905;SDS011;9585;51.018;4.282;2023-02-11T13:19:01;27.15;;;21.13;;
18905;SDS011;9585;51.018;4.282;2023-02-11T13:21:48;31.40;;;22.65;;
18905;SDS011;9585;51.018;4.282;2023-02-11T13:24:32;31.55;;;23.00;;
18905;SDS011;9585;51.018;4.282;2023-02-11T13:27:09;29.65;;;21.67;;
18905;SDS011;9585;51.018;4.282;2023-02-11T13:30:12;30.67;;;22.05;;
18905;SDS011;9585;51.018;4.282;2023-02-11T13:36:17;34.00;;;22.73;;
18905;SDS011;9585;51.018;4.282;2023-02-11T13:41:45;31.02;;;22.52;;
18905;SDS011;9585;51.018;4.282;2023-02-11T13:44:24;30.17;;;22.77;;
18905;SDS011;9585;51.018;4.282;2023-02-11T13:46:56;30.02;;;22.17;;
18905;SDS011;9585;51.018;4.282;2023-02-11T13:49:28;29.77;;;22.73;;
18905;SDS011;9585;51.018;4.282;2023-02-11T13:51:59;30.88;;;23.75;;
18905;SDS011;9585;51.018;4.282;2023-02-11T13:54:30;32.85;;;23.55;;
18905;SDS011;9585;51.018;4.282;2023-02-11T14:00:03;27.70;;;21.35;;
18905;SDS011;9585;51.018;4.282;2023-02-11T14:03:00;30.65;;;22.95;;
18905;SDS011;9585;51.018;4.282;2023-02-11T14:06:12;32.22;;;22.95;;
18905;SDS011;9585;51.018;4.282;2023-02-11T14:15:00;31.67;;;22.85;;
18905;SDS011;9585;51.018;4.282;2023-02-11T14:17:43;29.55;;;22.25;;
18905;SDS011;9585;51.018;4.282;2023-02-11T14:23:03;30.38;;;22.65;;
18905;SDS011;9585;51.018;4.282;2023-02-11T14:25:31;30.17;;;22.33;;
18905;SDS011;9585;51.018;4.282;2023-02-11T14:28:00;30.20;;;22.25;;
18905;SDS011;9585;51.018;4.282;2023-02-11T14:30:45;28.33;;;22.45;;
18905;SDS011;9585;51.018;4.282;2023-02-11T14:33:23;31.00;;;23.25;;
18905;SDS011;9585;51.018;4.282;2023-02-11T14:36:13;25.70;;;20.92;;
18905;SDS011;9585;51.018;4.282;2023-02-11T14:38:58;30.55;;;22.88;;
18905;SDS011;9585;51.018;4.282;2023-02-11T14:41:31;27.30;;;21.90;;
18905;SDS011;9585;51.018;4.282;2023-02-11T14:44:05;29.38;;;21.75;;
18905;SDS011;9585;51.018;4.282;2023-02-11T14:46:38;29.75;;;21.48;;
18905;SDS011;9585;51.018;4.282;2023-02-11T14:49:11;27.67;;;21.05;;
18905;SDS011;9585;51.018;4.282;2023-02-11T14:51:46;28.80;;;21.30;;
18905;SDS011;9585;51.018;4.282;2023-02-11T14:54:16;26.60;;;21.30;;
18905;SDS011;9585;51.018;4.282;2023-02-11T14:56:51;25.98;;;20.27;;
18905;SDS011;9585;51.018;4.282;2023-02-11T14:59:32;27.40;;;20.83;;
18905;SDS011;9585;51.018;4.282;2023-02-11T15:01:59;27.42;;;20.63;;
18905;SDS011;9585;51.018;4.282;2023-02-11T15:04:28;23.85;;;18.83;;
18905;SDS011;9585;51.018;4.282;2023-02-11T15:06:56;26.83;;;20.50;;
18905;SDS011;9585;51.018;4.282;2023-02-11T15:09:33;27.63;;;20.40;;
18905;SDS011;9585;51.018;4.282;2023-02-11T15:12:06;26.15;;;20.65;;
18905;SDS011;9585;51.018;4.282;2023-02-11T15:14:44;25.73;;;19.15;;
18905;SDS011;9585;51.018;4.282;2023-02-11T15:17:13;26.30;;;19.40;;
18905;SDS011;9585;51.018;4.282;2023-02-11T15:19:44;25.52;;;19.20;;
18905;SDS011;9585;51.018;4.282;2023-02-11T15:22:17;27.08;;;18.50;;
18905;SDS011;9585;51.018;4.282;2023-02-11T15:24:58;24.00;;;19.25;;
18905;SDS011;9585;51.018;4.282;2023-02-11T15:27:34;25.48;;;18.75;;
18905;SDS011;9585;51.018;4.282;2023-02-11T15:30:19;25.08;;;19.02;;
18905;SDS011;9585;51.018;4.282;2023-02-11T15:32:51;25.15;;;19.92;;
18905;SDS011;9585;51.018;4.282;2023-02-11T15:35:22;25.90;;;20.48;;
18905;SDS011;9585;51.018;4.282;2023-02-11T15:37:52;24.70;;;19.33;;
18905;SDS011;9585;51.018;4.282;2023-02-11T15:40:23;23.10;;;18.08;;